Time;durP1;ratioP1;P1;durP2;ratioP2;P2;SDS_P1;SDS_P2;PMS_P1;PMS_P2;Temp;Humidity;BMP_temperature;BMP_pressure;BME280_temperature;BME280_humidity;BME280_pressure;Samples;Min_cycle;Max_cycle;Signal;HPM_P1;HPM_P2
2023/02/14 00:00:07;;;;;;;;;;;;;;;0.57;78.52;98520.53;5068706;28;20280;-73
2023/02/14 00:02:34;;;;;;;;;;;;;;;0.55;78.66;98518.09;5091350;28;19932;-75
2023/02/14 00:04:59;;;;;;;;;;;;;;;0.51;79.07;98519.59;5107204;28;19927;-75
2023/02/14 00:07:25;;;;;;;;;;;;;;;0.50;79.28;98523.34;5092379;28;19928;-75
2023/02/14 00:09:51;;;;;;;;;;;;;;;0.49;79.40;98516.34;5069188;28;20374;-76
2023/02/14 00:12:17;;;;;;;;;;;;;;;0.49;79.57;98520.91;5104580;28;20038;-75
2023/02/14 00:17:29;;;;;;;;;;;;;;;0.57;79.36;98528.59;5101822;28;20032;-75
2023/02/14 00:19:55;;;;;;;;;;;;;;;0.56;79.38;98524.28;5099193;28;20386;-76
2023/02/14 00:22:21;;;;;;;;;;;;;;;0.53;79.80;98532.81;5096849;28;20035;-76
2023/02/14 00:24:47;;;;;;;;;;;;;;;0.52;80.17;98531.19;5086393;28;19966;-75
2023/02/14 00:27:12;;;;;;;;;;;;;;;0.50;80.22;98538.69;5086816;28;19974;-75
2023/02/14 00:29:38;;;;;;;;;;;;;;;0.52;80.54;98550.81;5087623;28;20305;-76
2023/02/14 00:32:06;;;;;;;;;;;;;;;0.51;80.67;98527.69;5088093;28;19932;-76
2023/02/14 00:34:32;;;;;;;;;;;;;;;0.50;80.85;98541.38;5093026;28;19955;-76
2023/02/14 00:36:59;;;;;;;;;;;;;;;0.45;81.38;98547.47;5106110;28;20408;-75
2023/02/14 00:39:25;;;;;;;;;;;;;;;0.39;82.15;98551.94;5094226;28;19932;-75
2023/02/14 00:41:50;;;;;;;;;;;;;;;0.39;82.88;98537.66;5085656;28;19935;-75
2023/02/14 00:44:16;;;;;;;;;;;;;;;0.40;83.21;98552.75;5090060;28;19931;-75
2023/02/14 00:46:42;;;;;;;;;;;;;;;0.38;83.39;98550.28;5102821;28;19933;-74
2023/02/14 00:49:09;;;;;;;;;;;;;;;0.40;83.43;98558.13;5105815;28;19927;-74
2023/02/14 00:51:37;;;;;;;;;;;;;;;0.44;82.97;98556.59;5104922;28;20357;-76
2023/02/14 00:54:03;;;;;;;;;;;;;;;0.48;82.82;98543.50;5086575;28;19927;-75
2023/02/14 00:56:30;;;;;;;;;;;;;;;0.45;82.49;98554.72;5095671;28;20326;-76
2023/02/14 00:58:56;;;;;;;;;;;;;;;0.40;82.59;98560.84;5078019;28;19928;-76
2023/02/14 01:01:22;;;;;;;;;;;;;;;0.38;83.05;98561.06;5089226;28;19953;-75
2023/02/14 01:03:47;;;;;;;;;;;;;;;0.40;83.08;98553.56;5103321;28;19955;-76
2023/02/14 01:06:15;;;;;;;;;;;;;;;0.41;82.79;98551.69;5107650;28;19927;-75
2023/02/14 01:08:41;;;;;;;;;;;;;;;0.43;82.47;98549.59;5105556;28;19927;-76
2023/02/14 01:11:07;;;;;;;;;;;;;;;0.44;82.44;98559.28;5104370;28;19928;-75
2023/02/14 01:13:33;;;;;;;;;;;;;;;0.42;82.90;98558.72;5104987;28;20379;-76
2023/02/14 01:16:05;;;;;;;;;;;;;;;0.36;83.23;98552.41;5107168;28;19980;-76
2023/02/14 01:18:31;;;;;;;;;;;;;;;0.32;83.64;98561.19;5089351;28;19935;-76
2023/02/14 01:20:57;;;;;;;;;;;;;;;0.35;83.67;98566.09;5084424;28;20031;-76
2023/02/14 01:23:24;;;;;;;;;;;;;;;0.38;83.99;98566.44;5102949;28;20026;-76
2023/02/14 01:25:50;;;;;;;;;;;;;;;0.42;83.59;98566.78;5105716;28;19927;-76
2023/02/14 01:28:15;;;;;;;;;;;;;;;0.45;83.44;98582.44;5101883;28;19927;-76
2023/02/14 01:30:41;;;;;;;;;;;;;;;0.46;83.66;98585.94;5106302;28;19978;-76
2023/02/14 01:33:08;;;;;;;;;;;;;;;0.37;84.02;98578.25;5103948;28;19976;-76
2023/02/14 01:35:36;;;;;;;;;;;;;;;0.28;84.74;98580.50;5104272;28;20155;-76
2023/02/14 01:38:02;;;;;;;;;;;;;;;0.22;85.37;98576.03;5106385;28;19961;-76
2023/02/14 01:40:29;;;;;;;;;;;;;;;0.16;85.96;98581.53;5085573;28;19932;-74
2023/02/14 01:42:56;;;;;;;;;;;;;;;0.09;86.10;98581.69;5084686;28;19938;-76
2023/02/14 01:45:25;;;;;;;;;;;;;;;0.05;86.27;98592.09;5065575;28;19928;-76
2023/02/14 01:47:53;;;;;;;;;;;;;;;0.04;86.67;98584.25;5083043;28;19950;-75
2023/02/14 01:50:21;;;;;;;;;;;;;;;0.08;86.78;98594.31;5090901;28;19935;-75
2023/02/14 01:52:50;;;;;;;;;;;;;;;0.10;86.87;98594.09;5082911;28;19928;-74
2023/02/14 01:55:17;;;;;;;;;;;;;;;0.13;86.98;98596.28;5096112;28;19931;-75
2023/02/14 01:57:46;;;;;;;;;;;;;;;0.18;86.85;98584.84;5105873;28;19927;-75
2023/02/14 02:02:59;;;;;;;;;;;;;;;0.24;86.12;98603.53;5075376;28;19927;-75
2023/02/14 02:05:25;;;;;;;;;;;;;;;0.25;85.70;98593.59;5106513;28;19938;-75
2023/02/14 02:07:51;;;;;;;;;;;;;;;0.25;85.62;98605.16;5086976;28;19981;-74
2023/02/14 02:10:18;;;;;;;;;;;;;;;0.32;85.11;98601.53;5103936;28;19927;-75
2023/02/14 02:12:46;;;;;;;;;;;;;;;0.38;84.80;98592.50;5084601;28;19934;-75
2023/02/14 02:15:13;;;;;;;;;;;;;;;0.28;84.54;98585.88;5086587;28;19974;-75
2023/02/14 02:17:47;;;;;;;;;;;;;;;0.10;84.32;98588.72;5085259;28;20327;-75
2023/02/14 02:20:32;;;;;;;;;;;;;;;-0.04;84.69;98594.34;5081838;28;19928;-75
2023/02/14 02:23:16;;;;;;;;;;;;;;;-0.11;85.21;98599.00;5079774;28;19924;-76
2023/02/14 02:26:02;;;;;;;;;;;;;;;-0.08;85.46;98601.22;5065997;28;20077;-76
2023/02/14 02:28:51;;;;;;;;;;;;;;;0.02;85.17;98611.38;5083431;28;19928;-75
2023/02/14 02:31:29;;;;;;;;;;;;;;;0.10;84.76;98613.72;5060961;28;19935;-76
2023/02/14 02:34:21;;;;;;;;;;;;;;;0.12;84.69;98608.91;5098161;28;20508;-76
2023/02/14 02:36:56;;;;;;;;;;;;;;;0.13;84.57;98615.91;5083063;28;19928;-73
2023/02/14 02:39:44;;;;;;;;;;;;;;;0.13;84.33;98617.81;5082514;28;19958;-73
2023/02/14 02:42:18;;;;;;;;;;;;;;;0.14;84.46;98608.69;5083673;28;19928;-75
2023/02/14 02:44:50;;;;;;;;;;;;;;;0.16;84.51;98617.34;5104643;28;19928;-73
2023/02/14 02:47:21;;;;;;;;;;;;;;;0.23;84.37;98606.44;5086516;28;19927;-73
2023/02/14 02:56:44;;;;;;;;;;;;;;;0.35;83.76;98607.25;5104622;28;19928;-73
2023/02/14 02:58:16;;;;;;;;;;;;;;;0.36;83.99;98622.34;5084405;28;19932;-73
2023/02/14 03:00:43;;;;;;;;;;;;;;;0.37;84.48;98626.66;5088734;28;20015;-73
2023/02/14 03:05:54;;;;;;;;;;;;;;;0.36;85.38;98626.88;5104331;28;20421;-73
2023/02/14 03:08:21;;;;;;;;;;;;;;;0.27;85.72;98608.44;5107564;28;19947;-73
2023/02/14 03:10:47;;;;;;;;;;;;;;;0.18;86.18;98625.16;5089156;28;20406;-73
2023/02/14 03:13:25;;;;;;;;;;;;;;;0.06;86.44;98630.53;5106813;28;19928;-73
2023/02/14 03:15:52;;;;;;;;;;;;;;;-0.13;86.14;98617.22;5088915;28;19927;-73
2023/02/14 03:18:28;;;;;;;;;;;;;;;-0.24;86.57;98621.53;5107359;28;19928;-72
2023/02/14 03:21:01;;;;;;;;;;;;;;;-0.31;86.27;98618.16;5108111;28;20414;-74
2023/02/14 03:23:30;;;;;;;;;;;;;;;-0.36;86.31;98624.22;5105036;28;20314;-73
2023/02/14 03:26:04;;;;;;;;;;;;;;;-0.34;86.30;98626.66;5083549;28;19932;-73
2023/02/14 03:28:34;;;;;;;;;;;;;;;-0.34;86.24;98637.41;5087046;28;19932;-76
2023/02/14 03:31:03;;;;;;;;;;;;;;;-0.41;86.81;98632.16;5073131;28;19928;-75
2023/02/14 03:33:32;;;;;;;;;;;;;;;-0.53;87.54;98629.44;5088019;28;19934;-77
2023/02/14 03:36:00;;;;;;;;;;;;;;;-0.61;88.56;98627.09;5091477;28;19928;-78
2023/02/14 03:38:30;;;;;;;;;;;;;;;-0.63;89.23;98630.00;5071645;28;19954;-74
2023/02/14 03:40:58;;;;;;;;;;;;;;;-0.61;89.85;98630.59;5070101;28;19928;-75
2023/02/14 03:43:30;;;;;;;;;;;;;;;-0.57;90.54;98647.06;5087151;28;19965;-78
2023/02/14 03:46:01;;;;;;;;;;;;;;;-0.50;90.68;98639.72;5087725;28;19928;-76
2023/02/14 03:48:28;;;;;;;;;;;;;;;-0.43;90.70;98642.31;5093790;28;19928;-75
2023/02/14 03:50:54;;;;;;;;;;;;;;;-0.39;90.55;98648.88;5068153;28;20408;-74
2023/02/14 03:53:22;;;;;;;;;;;;;;;-0.38;90.59;98649.69;5088938;28;19932;-74
2023/02/14 03:55:54;;;;;;;;;;;;;;;-0.34;90.49;98649.00;5087255;28;19934;-75
2023/02/14 03:58:23;;;;;;;;;;;;;;;-0.31;90.56;98647.72;5086464;28;19928;-75
2023/02/14 04:00:51;;;;;;;;;;;;;;;-0.30;90.60;98654.72;5090309;27;19932;-74
2023/02/14 04:03:19;;;;;;;;;;;;;;;-0.27;90.75;98654.25;5097169;28;19985;-74
2023/02/14 04:05:45;;;;;;;;;;;;;;;-0.28;90.16;98641.88;5086546;28;20642;-73
2023/02/14 04:08:19;;;;;;;;;;;;;;;-0.32;90.00;98652.25;5089103;28;19931;-74
2023/02/14 04:10:45;;;;;;;;;;;;;;;-0.37;89.76;98649.47;5086217;28;19963;-75
2023/02/14 04:13:12;;;;;;;;;;;;;;;-0.40;89.55;98649.91;5086067;28;19963;-75
2023/02/14 04:15:38;;;;;;;;;;;;;;;-0.45;89.10;98645.25;5084178;28;20310;-76
2023/02/14 04:20:49;;;;;;;;;;;;;;;-0.50;89.20;98666.56;5106043;28;19951;-75
2023/02/14 04:23:15;;;;;;;;;;;;;;;-0.44;88.85;98667.53;5086672;28;19962;-75
2023/02/14 04:25:41;;;;;;;;;;;;;;;-0.39;88.44;98669.53;5105119;28;20439;-74
2023/02/14 04:28:07;;;;;;;;;;;;;;;-0.33;88.38;98668.59;5109053;27;19935;-74
2023/02/14 04:30:35;;;;;;;;;;;;;;;-0.29;87.93;98662.53;5094215;28;19928;-75
2023/02/14 04:33:03;;;;;;;;;;;;;;;-0.26;87.53;98663.94;5084662;28;20280;-75
2023/02/14 04:35:29;;;;;;;;;;;;;;;-0.24;86.88;98667.22;5094604;28;19981;-74
2023/02/14 04:37:56;;;;;;;;;;;;;;;-0.24;86.50;98675.28;5099688;28;19959;-75
2023/02/14 04:40:21;;;;;;;;;;;;;;;-0.23;86.10;98684.97;5090281;28;19927;-75
2023/02/14 04:42:47;;;;;;;;;;;;;;;-0.21;86.01;98680.19;5106785;28;19943;-74
2023/02/14 04:45:13;;;;;;;;;;;;;;;-0.20;85.40;98681.03;5105194;28;19999;-74
2023/02/14 04:47:41;;;;;;;;;;;;;;;-0.21;85.37;98685.56;5080484;28;20026;-75
2023/02/14 04:50:07;;;;;;;;;;;;;;;-0.21;85.16;98682.06;5098809;28;20317;-75
2023/02/14 04:52:32;;;;;;;;;;;;;;;-0.26;84.94;98688.13;5104563;28;20479;-74
2023/02/14 04:54:58;;;;;;;;;;;;;;;-0.27;85.01;98688.34;5103026;28;20314;-74
2023/02/14 04:57:24;;;;;;;;;;;;;;;-0.24;84.61;98690.56;5104498;28;19927;-75
2023/02/14 04:59:50;;;;;;;;;;;;;;;-0.19;84.21;98710.31;5087741;28;19973;-75
2023/02/14 05:02:16;;;;;;;;;;;;;;;-0.16;84.02;98704.50;5084924;28;19997;-75
2023/02/14 05:04:43;;;;;;;;;;;;;;;-0.11;84.00;98703.00;5087278;28;19928;-74
2023/02/14 05:07:09;;;;;;;;;;;;;;;-0.10;83.53;98712.69;5085488;28;19971;-75
2023/02/14 05:09:35;;;;;;;;;;;;;;;-0.13;83.65;98713.16;5100974;28;19963;-75
2023/02/14 05:12:01;;;;;;;;;;;;;;;-0.11;83.22;98719.13;5097283;28;20433;-75
2023/02/14 05:14:27;;;;;;;;;;;;;;;-0.09;82.76;98725.88;5085140;28;19928;-75
2023/02/14 05:16:53;;;;;;;;;;;;;;;-0.06;82.50;98730.81;5081755;28;19947;-75
2023/02/14 05:19:19;;;;;;;;;;;;;;;-0.03;82.13;98718.75;5097951;28;20019;-75
2023/02/14 05:21:46;;;;;;;;;;;;;;;-0.02;81.47;98726.59;5104425;28;20018;-75
2023/02/14 05:24:12;;;;;;;;;;;;;;;0.01;81.33;98733.41;5088840;28;19934;-72
2023/02/14 05:26:38;;;;;;;;;;;;;;;0.04;81.24;98738.31;5090484;28;20188;-72
2023/02/14 05:29:03;;;;;;;;;;;;;;;0.05;80.99;98734.56;5077779;28;19928;-72
2023/02/14 05:31:29;;;;;;;;;;;;;;;0.10;80.87;98737.38;5084048;28;19927;-75
2023/02/14 05:33:55;;;;;;;;;;;;;;;0.11;80.76;98738.19;5083156;28;19948;-75
2023/02/14 05:36:21;;;;;;;;;;;;;;;0.13;80.58;98731.53;5076939;28;19950;-75
2023/02/14 05:38:48;;;;;;;;;;;;;;;0.16;81.01;98749.06;4733348;27;9999973;-75
2023/02/14 05:41:14;;;;;;;;;;;;;;;0.21;81.19;98748.38;5093941;28;19928;-75
2023/02/14 05:43:40;;;;;;;;;;;;;;;0.26;81.16;98737.72;5099976;28;19950;-73
2023/02/14 05:46:06;;;;;;;;;;;;;;;0.30;81.17;98741.59;5081454;28;20383;-72
2023/02/14 05:48:32;;;;;;;;;;;;;;;0.31;81.08;98745.09;5064038;28;19951;-71
2023/02/14 05:51:02;;;;;;;;;;;;;;;0.31;80.91;98745.91;5078986;28;19928;-72
2023/02/14 05:53:28;;;;;;;;;;;;;;;0.36;80.66;98742.53;5082746;28;19934;-71
2023/02/14 05:55:55;;;;;;;;;;;;;;;0.36;80.50;98751.44;5052323;28;20022;-72
2023/02/14 05:58:20;;;;;;;;;;;;;;;0.36;80.40;98756.81;5097222;28;19928;-73
2023/02/14 06:00:46;;;;;;;;;;;;;;;0.38;80.44;98749.31;5082808;28;19981;-72
2023/02/14 06:03:12;;;;;;;;;;;;;;;0.42;80.27;98761.25;5096945;28;20390;-72
2023/02/14 06:05:38;;;;;;;;;;;;;;;0.47;80.15;98747.09;5095084;28;19934;-73
2023/02/14 06:08:04;;;;;;;;;;;;;;;0.54;80.18;98753.16;5097101;28;19970;-72
2023/02/14 06:10:30;;;;;;;;;;;;;;;0.60;80.00;98751.41;5088962;28;19988;-75
2023/02/14 06:12:58;;;;;;;;;;;;;;;0.70;79.79;98748.13;5095926;28;19928;-75
2023/02/14 06:15:24;;;;;;;;;;;;;;;0.76;79.51;98749.88;5085980;28;20186;-76
2023/02/14 06:17:50;;;;;;;;;;;;;;;0.76;79.21;98754.44;5099232;28;19927;-75
2023/02/14 06:20:18;;;;;;;;;;;;;;;0.78;78.82;98753.16;5084684;28;19973;-75
2023/02/14 06:22:44;;;;;;;;;;;;;;;0.80;78.69;98755.63;5097262;28;19928;-76
2023/02/14 06:25:10;;;;;;;;;;;;;;;0.83;78.81;98757.84;5088443;28;19981;-76
2023/02/14 06:27:35;;;;;;;;;;;;;;;0.78;78.49;98728.94;5099069;28;19927;-76
2023/02/14 06:30:03;;;;;;;;;;;;;;;0.93;78.03;98752.66;5094831;28;20288;-75
2023/02/14 06:32:29;;;;;;;;;;;;;;;0.95;77.83;98760.50;5095338;28;20430;-76
2023/02/14 06:34:55;;;;;;;;;;;;;;;0.97;77.99;98758.38;5095350;28;19975;-76
2023/02/14 06:37:21;;;;;;;;;;;;;;;0.98;78.07;98765.41;5101506;28;19966;-73
2023/02/14 06:39:47;;;;;;;;;;;;;;;0.99;78.03;98761.66;5099893;28;19955;-73
2023/02/14 06:42:13;;;;;;;;;;;;;;;1.03;77.76;98778.16;5098954;28;19932;-74
2023/02/14 06:44:39;;;;;;;;;;;;;;;1.11;77.57;98765.16;5067260;28;19928;-73
2023/02/14 06:47:07;;;;;;;;;;;;;;;1.17;77.33;98767.94;5069815;28;20413;-73
2023/02/14 06:49:33;;;;;;;;;;;;;;;1.24;76.98;98771.31;5106769;28;19928;-73
2023/02/14 06:51:59;;;;;;;;;;;;;;;1.23;76.35;98777.78;5086472;28;19927;-75
2023/02/14 06:54:25;;;;;;;;;;;;;;;1.22;76.39;98774.25;5078314;28;20448;-75
2023/02/14 06:56:51;;;;;;;;;;;;;;;1.22;76.38;98778.84;5099050;28;19935;-75
2023/02/14 06:59:16;;;;;;;;;;;;;;;1.18;76.53;98781.19;5102170;28;19927;-76
2023/02/14 07:01:42;;;;;;;;;;;;;;;1.17;76.93;98781.41;5099855;28;19975;-75
2023/02/14 07:04:10;;;;;;;;;;;;;;;1.05;77.34;98779.56;5101080;28;19970;-75
2023/02/14 07:06:36;;;;;;;;;;;;;;;1.15;78.22;98796.97;5090029;28;19947;-75
2023/02/14 07:09:02;;;;;;;;;;;;;;;1.17;78.54;98794.88;5061698;28;19927;-75
2023/02/14 07:11:28;;;;;;;;;;;;;;;1.11;78.53;98799.34;5096530;28;19978;-75
2023/02/14 07:13:54;;;;;;;;;;;;;;;1.06;78.51;98807.31;5096235;28;19951;-73
2023/02/14 07:16:20;;;;;;;;;;;;;;;1.07;78.27;98809.75;5100608;28;19953;-73
2023/02/14 07:18:46;;;;;;;;;;;;;;;1.15;78.43;98810.44;5077305;28;19968;-73
2023/02/14 07:21:13;;;;;;;;;;;;;;;1.21;78.18;98802.22;5102466;28;19984;-73
2023/02/14 07:23:39;;;;;;;;;;;;;;;1.21;77.44;98801.44;5094388;28;19932;-73
2023/02/14 07:26:05;;;;;;;;;;;;;;;1.20;77.15;98808.69;5074118;28;20030;-73
2023/02/14 07:28:32;;;;;;;;;;;;;;;1.18;77.11;98810.00;5101436;28;20377;-74
2023/02/14 07:30:59;;;;;;;;;;;;;;;1.19;76.99;98808.94;5100081;28;19928;-74
2023/02/14 07:33:25;;;;;;;;;;;;;;;1.18;76.65;98813.50;5078616;28;19980;-73
2023/02/14 07:35:51;;;;;;;;;;;;;;;1.22;76.82;98816.53;5075859;28;19928;-74
2023/02/14 07:38:18;;;;;;;;;;;;;;;1.24;76.40;98815.22;5095483;28;19928;-74
2023/02/14 07:40:44;;;;;;;;;;;;;;;1.21;76.17;98820.28;5097665;28;20321;-74
2023/02/14 07:43:10;;;;;;;;;;;;;;;1.18;76.06;98826.94;5096766;28;19963;-74
2023/02/14 07:45:35;;;;;;;;;;;;;;;1.18;76.05;98821.56;5101545;28;20223;-74
2023/02/14 07:48:01;;;;;;;;;;;;;;;1.21;76.10;98839.94;5082729;28;19931;-74
2023/02/14 07:50:28;;;;;;;;;;;;;;;1.25;75.99;98827.66;5098517;28;19928;-74
2023/02/14 07:52:54;;;;;;;;;;;;;;;1.31;75.47;98847.41;5101935;28;20412;-73
2023/02/14 07:55:23;;;;;;;;;;;;;;;1.39;75.21;98827.38;5103249;28;19932;-74
2023/02/14 07:57:49;;;;;;;;;;;;;;;1.43;74.95;98828.56;5102843;28;19955;-74
2023/02/14 08:00:16;;;;;;;;;;;;;;;1.46;74.91;98828.06;5099661;28;19934;-74
2023/02/14 08:02:42;;;;;;;;;;;;;;;1.54;74.53;98843.03;5101566;28;20428;-74
2023/02/14 08:05:08;;;;;;;;;;;;;;;1.60;74.53;98849.34;5109177;28;19927;-74
2023/02/14 08:07:34;;;;;;;;;;;;;;;1.60;74.23;98846.66;5101997;28;19935;-74
2023/02/14 08:10:00;;;;;;;;;;;;;;;1.59;74.13;98842.34;5103192;28;19950;-74
2023/02/14 08:17:56;;;;;;;;;;;;;;;1.47;74.19;98858.50;5102790;28;20311;-75
2023/02/14 08:20:22;;;;;;;;;;;;;;;1.44;74.01;98849.03;5101508;28;20421;-73
2023/02/14 08:22:47;;;;;;;;;;;;;;;1.47;74.26;98843.19;5105085;28;20394;-74
2023/02/14 08:25:13;;;;;;;;;;;;;;;1.78;73.97;98857.25;5112001;28;20068;-77
2023/02/14 08:27:40;;;;;;;;;;;;;;;2.64;72.16;98860.09;5109115;28;20322;-73
2023/02/14 08:30:07;;;;;;;;;;;;;;;2.91;69.75;98862.94;5109840;28;20030;-76
2023/02/14 08:32:33;;;;;;;;;;;;;;;2.61;70.26;98874.09;5103622;28;19938;-73
2023/02/14 08:34:59;;;;;;;;;;;;;;;2.40;71.33;98876.44;5104054;28;19981;-73
2023/02/14 08:37:25;;;;;;;;;;;;;;;2.28;72.04;98873.81;5101898;28;20459;-73
2023/02/14 08:39:51;;;;;;;;;;;;;;;2.17;72.59;98889.00;5105543;28;19928;-73
2023/02/14 08:42:17;;;;;;;;;;;;;;;1.87;73.84;98891.91;5102170;28;20311;-73
2023/02/14 08:44:44;;;;;;;;;;;;;;;1.46;76.19;98883.81;5102384;28;19928;-76
2023/02/14 08:47:11;;;;;;;;;;;;;;;1.10;78.28;98887.38;5105881;28;20665;-76
2023/02/14 08:49:39;;;;;;;;;;;;;;;0.84;79.74;98899.44;5105527;28;19932;-73
2023/02/14 08:52:05;;;;;;;;;;;;;;;0.67;81.14;98902.81;5101469;28;19928;-73
2023/02/14 08:54:31;;;;;;;;;;;;;;;0.59;82.52;98921.16;5100028;28;19927;-74
2023/02/14 08:56:57;;;;;;;;;;;;;;;0.51;83.51;98917.72;5102818;28;19931;-76
2023/02/14 08:59:26;;;;;;;;;;;;;;;0.40;84.42;98913.97;5107659;28;19927;-77
2023/02/14 09:01:54;;;;;;;;;;;;;;;0.32;85.14;98926.91;5105657;28;20217;-78
2023/02/14 09:04:20;;;;;;;;;;;;;;;0.25;85.79;98924.31;5104429;28;20034;-75
2023/02/14 09:06:46;;;;;;;;;;;;;;;0.18;86.42;98919.03;5107857;28;20303;-75
2023/02/14 09:09:19;;;;;;;;;;;;;;;0.19;86.97;98938.69;5103154;28;19963;-81
2023/02/14 09:11:46;;;;;;;;;;;;;;;0.23;87.14;98940.69;5083457;28;19935;-76
2023/02/14 09:14:12;;;;;;;;;;;;;;;0.25;87.49;98941.28;5080096;28;19928;-75
2023/02/14 09:16:38;;;;;;;;;;;;;;;0.32;87.36;98943.91;5093607;28;19927;-76
2023/02/14 09:19:05;;;;;;;;;;;;;;;0.43;87.44;98942.28;5066378;28;20030;-75
2023/02/14 09:21:33;;;;;;;;;;;;;;;0.58;87.02;98946.44;5104571;28;19973;-74
2023/02/14 09:23:58;;;;;;;;;;;;;;;0.66;86.58;98948.78;5084527;28;19928;-75
2023/02/14 09:26:24;;;;;;;;;;;;;;;0.78;86.11;98938.03;5102450;28;19928;-75
2023/02/14 09:28:50;;;;;;;;;;;;;;;0.95;85.14;98936.31;5087495;28;19932;-79
2023/02/14 09:31:17;;;;;;;;;;;;;;;1.08;84.09;98943.34;5100070;28;19939;-78
2023/02/14 09:33:43;;;;;;;;;;;;;;;1.27;82.96;98949.44;5104033;28;19931;-77
2023/02/14 09:38:55;;;;;;;;;;;;;;;1.19;80.67;98952.47;5097802;28;20436;-79
2023/02/14 09:41:38;;;;;;;;;;;;;;;1.12;80.20;98947.19;5102481;28;20059;-73
2023/02/14 09:44:06;;;;;;;;;;;;;;;1.09;79.77;98958.44;5102461;28;20323;-73
2023/02/14 09:46:35;;;;;;;;;;;;;;;1.16;79.69;98955.63;5104390;28;20321;-72
2023/02/14 09:49:01;;;;;;;;;;;;;;;1.29;79.35;98956.47;5090274;28;20604;-74
2023/02/14 09:51:30;;;;;;;;;;;;;;;1.47;78.93;98961.72;5096476;28;19928;-75
2023/02/14 09:53:59;;;;;;;;;;;;;;;1.81;77.31;98963.81;5099968;28;19932;-73
2023/02/14 09:56:29;;;;;;;;;;;;;;;2.17;75.00;98950.19;5097769;28;20287;-73
2023/02/14 09:59:02;;;;;;;;;;;;;;;2.79;72.41;98962.94;5082852;28;20383;-73
2023/02/14 10:01:32;;;;;;;;;;;;;;;2.98;70.30;98963.53;5099583;28;19927;-74
2023/02/14 10:04:15;;;;;;;;;;;;;;;2.93;70.35;98976.94;5060831;28;19927;-74
2023/02/14 10:06:47;;;;;;;;;;;;;;;2.88;71.28;98993.06;5099366;28;20514;-74
2023/02/14 10:09:18;;;;;;;;;;;;;;;2.74;70.89;98995.25;5102424;28;19928;-74
2023/02/14 10:11:45;;;;;;;;;;;;;;;2.53;71.01;98978.69;5101324;28;20280;-74
2023/02/14 10:14:13;;;;;;;;;;;;;;;2.39;71.26;98997.03;5103801;28;19928;-73
2023/02/14 10:16:41;;;;;;;;;;;;;;;2.30;71.17;98998.47;5082078;28;19955;-74
2023/02/14 10:19:14;;;;;;;;;;;;;;;2.16;71.89;99005.19;5096808;28;19972;-74
2023/02/14 10:21:41;;;;;;;;;;;;;;;1.94;72.65;99003.16;5095197;28;19928;-74
2023/02/14 10:24:13;;;;;;;;;;;;;;;1.75;73.16;99019.47;5086248;28;19972;-74
2023/02/14 10:26:40;;;;;;;;;;;;;;;1.62;73.66;99009.75;5097577;28;20291;-74
2023/02/14 10:29:07;;;;;;;;;;;;;;;1.54;73.40;98997.44;5096837;28;20407;-73
2023/02/14 10:31:36;;;;;;;;;;;;;;;1.47;73.60;99014.78;5094934;28;19955;-73
2023/02/14 10:34:07;;;;;;;;;;;;;;;1.48;73.84;99021.81;5101023;28;20017;-74
2023/02/14 10:36:40;;;;;;;;;;;;;;;1.51;73.36;99011.38;4736465;28;10000196;-73
2023/02/14 10:39:15;;;;;;;;;;;;;;;1.55;73.37;99020.63;5092784;28;19935;-74
2023/02/14 10:41:48;;;;;;;;;;;;;;;1.66;73.03;99023.56;5094326;28;19928;-76
2023/02/14 10:44:21;;;;;;;;;;;;;;;1.67;72.45;99034.13;5093873;28;19971;-74
2023/02/14 10:46:51;;;;;;;;;;;;;;;1.64;71.69;99031.06;5089017;28;19927;-74
2023/02/14 10:49:25;;;;;;;;;;;;;;;1.63;71.36;99040.22;5100219;28;19932;-76
2023/02/14 10:51:54;;;;;;;;;;;;;;;1.67;71.06;99038.69;5072653;28;19997;-76
2023/02/14 10:54:21;;;;;;;;;;;;;;;1.78;70.54;99037.88;5103704;28;20272;-76
2023/02/14 10:56:53;;;;;;;;;;;;;;;1.81;69.81;99044.69;5097054;28;19927;-76
2023/02/14 10:59:21;;;;;;;;;;;;;;;1.85;69.17;99035.06;5079106;28;19951;-76
2023/02/14 11:01:48;;;;;;;;;;;;;;;1.77;68.32;99056.97;5095856;28;19958;-74
2023/02/14 11:04:16;;;;;;;;;;;;;;;1.75;68.13;99067.16;5094189;28;19971;-75
2023/02/14 11:06:42;;;;;;;;;;;;;;;1.78;68.58;99064.81;5099332;28;19934;-75
2023/02/14 11:09:13;;;;;;;;;;;;;;;1.73;68.04;99066.56;5082158;28;19932;-75
2023/02/14 11:11:42;;;;;;;;;;;;;;;1.56;68.41;99078.06;5101230;28;19928;-76
2023/02/14 11:14:19;;;;;;;;;;;;;;;1.50;68.92;99079.00;5076509;28;19927;-76
2023/02/14 11:16:50;;;;;;;;;;;;;;;1.52;68.89;99091.16;5109756;28;19934;-76
2023/02/14 11:19:19;;;;;;;;;;;;;;;1.61;68.85;99098.94;5100220;28;19963;-74
2023/02/14 11:21:45;;;;;;;;;;;;;;;1.62;69.01;99081.69;5099167;28;20351;-74
2023/02/14 11:24:16;;;;;;;;;;;;;;;1.59;69.33;99087.56;5104127;28;19928;-75
2023/02/14 11:26:44;;;;;;;;;;;;;;;1.53;69.60;99090.09;5105496;28;20004;-74
2023/02/14 11:29:11;;;;;;;;;;;;;;;1.47;69.14;99099.13;5102885;28;19931;-74
2023/02/14 11:31:40;;;;;;;;;;;;;;;1.51;69.20;99086.03;5104989;28;19957;-75
2023/02/14 11:34:20;;;;;;;;;;;;;;;1.47;69.12;99107.22;5082869;28;19932;-74
2023/02/14 11:36:46;;;;;;;;;;;;;;;1.46;69.15;99107.44;5101737;28;19928;-74
2023/02/14 11:39:24;;;;;;;;;;;;;;;1.52;68.96;99104.63;5101753;28;19934;-74
2023/02/14 11:41:51;;;;;;;;;;;;;;;1.64;68.61;99104.69;5102657;28;20034;-73
2023/02/14 11:44:21;;;;;;;;;;;;;;;1.64;68.03;99122.72;5088306;28;19928;-74
2023/02/14 11:46:48;;;;;;;;;;;;;;;1.63;68.01;99112.97;5098130;28;19957;-73
2023/02/14 11:49:23;;;;;;;;;;;;;;;1.67;67.94;99130.31;5094632;28;19978;-74
2023/02/14 11:51:49;;;;;;;;;;;;;;;1.66;67.68;99124.13;4746093;27;10000527;-74
2023/02/14 11:54:25;;;;;;;;;;;;;;;1.72;67.79;99126.94;5082079;28;19944;-74
2023/02/14 11:56:52;;;;;;;;;;;;;;;1.83;67.66;99126.13;5100248;28;20005;-74
2023/02/14 11:59:23;;;;;;;;;;;;;;;2.10;67.02;99120.25;5104070;28;19928;-74
2023/02/14 12:01:51;;;;;;;;;;;;;;;3.02;64.22;99122.41;5084874;28;20538;-74
2023/02/14 12:04:21;;;;;;;;;;;;;;;4.31;59.98;99121.75;5093181;28;19931;-75
2023/02/14 12:06:46;;;;;;;;;;;;;;;4.14;58.10;99132.63;5062551;28;19932;-76
2023/02/14 12:09:23;;;;;;;;;;;;;;;4.02;59.79;99151.63;5102363;28;19981;-74
2023/02/14 12:11:54;;;;;;;;;;;;;;;5.13;55.95;99139.25;5102394;28;19934;-73
2023/02/14 12:14:21;;;;;;;;;;;;;;;6.47;52.85;99131.34;5089965;28;20017;-74
2023/02/14 12:16:51;;;;;;;;;;;;;;;7.43;49.75;99146.63;5100939;28;19928;-73
2023/02/14 12:19:19;;;;;;;;;;;;;;;7.37;48.23;99143.06;5103393;28;19950;-74
2023/02/14 12:21:47;;;;;;;;;;;;;;;6.07;51.22;99155.28;5099702;28;19928;-74
2023/02/14 12:24:25;;;;;;;;;;;;;;;5.19;53.26;99157.19;5097749;28;19928;-75
2023/02/14 12:26:55;;;;;;;;;;;;;;;4.62;54.98;99170.09;5076611;28;20043;-74
2023/02/14 12:29:25;;;;;;;;;;;;;;;4.55;55.77;99167.56;5086962;28;20030;-74
2023/02/14 12:31:51;;;;;;;;;;;;;;;4.00;56.74;99169.19;5082106;28;19935;-74
2023/02/14 12:34:19;;;;;;;;;;;;;;;3.43;58.12;99187.16;5104105;28;19934;-74
2023/02/14 12:37:05;;;;;;;;;;;;;;;2.87;59.91;99175.03;5090476;28;19935;-74
2023/02/14 12:39:36;;;;;;;;;;;;;;;2.33;61.49;99203.03;5054744;28;19936;-74
2023/02/14 12:42:08;;;;;;;;;;;;;;;1.97;62.54;99191.44;5096358;28;19927;-75
2023/02/14 12:44:41;;;;;;;;;;;;;;;1.69;63.87;99206.38;5090193;28;19934;-74
2023/02/14 12:47:13;;;;;;;;;;;;;;;1.51;64.66;99218.88;5104818;28;19935;-77
2023/02/14 12:50:11;;;;;;;;;;;;;;;1.46;65.46;99215.22;5105651;28;19932;-76
2023/02/14 12:52:53;;;;;;;;;;;;;;;1.36;65.61;99205.81;5100846;28;19934;-76
2023/02/14 12:55:42;;;;;;;;;;;;;;;1.29;65.96;99213.16;5101108;28;19935;-76
2023/02/14 12:58:17;;;;;;;;;;;;;;;1.27;66.25;99218.78;5087593;28;19975;-74
2023/02/14 13:00:48;;;;;;;;;;;;;;;1.24;66.32;99221.13;5078531;28;20398;-74
2023/02/14 13:03:25;;;;;;;;;;;;;;;1.16;66.58;99230.31;5093103;28;20064;-74
2023/02/14 13:05:57;;;;;;;;;;;;;;;1.16;66.92;99246.50;5108592;28;20473;-74
2023/02/14 13:08:29;;;;;;;;;;;;;;;1.16;67.32;99251.88;5104676;28;19928;-74
2023/02/14 13:10:59;;;;;;;;;;;;;;;1.14;67.70;99240.50;5102000;28;19927;-74
2023/02/14 13:13:32;;;;;;;;;;;;;;;1.10;68.14;99242.03;5104045;28;19934;-74
2023/02/14 13:16:03;;;;;;;;;;;;;;;1.04;68.34;99259.06;5104042;28;20346;-76
2023/02/14 13:18:36;;;;;;;;;;;;;;;1.02;68.81;99253.09;5104604;28;19935;-75
2023/02/14 13:21:05;;;;;;;;;;;;;;;1.00;68.98;99264.06;5104468;28;19927;-74
2023/02/14 13:23:34;;;;;;;;;;;;;;;1.01;69.05;99270.28;5102820;28;20319;-76
2023/02/14 13:26:04;;;;;;;;;;;;;;;1.00;68.77;99274.84;5082997;28;20318;-74